createdAt,value
2023-03-26T00:02:04.177Z,9.53
2023-03-26T00:04:33.783Z,9.49
2023-03-26T00:07:03.252Z,9.48
2023-03-26T00:09:31.349Z,9.52
2023-03-26T00:11:59.366Z,9.49
2023-03-26T00:14:29.254Z,9.46
2023-03-26T00:16:57.348Z,9.49
2023-03-26T00:19:25.434Z,9.48
2023-03-26T00:21:53.470Z,9.50
2023-03-26T00:24:29.458Z,9.46
2023-03-26T00:26:59.808Z,9.43
2023-03-26T00:29:28.781Z,9.45
2023-03-26T00:31:57.020Z,9.43
2023-03-26T00:34:25.061Z,9.42
2023-03-26T00:36:54.928Z,9.40
2023-03-26T00:39:24.486Z,9.40
2023-03-26T00:41:54.540Z,9.40
2023-03-26T00:44:23.246Z,9.33
2023-03-26T00:46:51.447Z,9.32
2023-03-26T00:49:19.394Z,9.29
2023-03-26T00:51:47.344Z,9.29
2023-03-26T00:54:15.768Z,9.27
2023-03-26T00:56:45.445Z,9.26
2023-03-26T00:59:13.733Z,9.27
2023-03-26T01:01:41.959Z,9.26
2023-03-26T01:04:27.569Z,9.22
2023-03-26T01:06:59.909Z,9.22
2023-03-26T01:09:34.430Z,9.19
2023-03-26T01:12:06.921Z,9.19
2023-03-26T01:14:35.098Z,9.18
2023-03-26T01:17:04.620Z,9.18
2023-03-26T01:19:39.110Z,9.19
2023-03-26T01:22:11.129Z,9.16
2023-03-26T01:24:40.979Z,9.18
2023-03-26T01:27:42.761Z,9.16
2023-03-26T01:30:17.676Z,9.17
2023-03-26T01:33:03.273Z,9.11
2023-03-26T01:35:45.907Z,9.15
2023-03-26T01:38:26.049Z,9.13
2023-03-26T01:41:00.186Z,9.11
2023-03-26T01:43:34.144Z,9.14
2023-03-26T01:46:06.189Z,9.14
2023-03-26T01:48:38.130Z,9.13
2023-03-26T01:51:07.532Z,9.10
2023-03-26T01:53:39.343Z,9.13
2023-03-26T01:56:15.251Z,9.11
2023-03-26T01:58:56.293Z,9.08
2023-03-26T02:01:31.157Z,9.08
2023-03-26T02:04:06.744Z,9.04
2023-03-26T02:06:44.244Z,9.07
2023-03-26T02:09:15.963Z,9.04
2023-03-26T02:11:47.157Z,9.06
2023-03-26T02:14:16.331Z,9.08
2023-03-26T02:16:46.993Z,9.14
2023-03-26T02:19:21.528Z,9.15
2023-03-26T02:21:51.378Z,9.17
2023-03-26T02:24:20.945Z,9.19
2023-03-26T02:26:53.268Z,9.16
2023-03-26T02:29:22.266Z,9.17
2023-03-26T02:31:51.099Z,9.15
2023-03-26T02:34:19.290Z,9.16
2023-03-26T02:36:51.725Z,9.15
2023-03-26T02:39:20.887Z,9.22
2023-03-26T02:42:13.085Z,9.19
2023-03-26T02:44:47.699Z,9.12
2023-03-26T02:47:21.415Z,9.07
2023-03-26T02:49:55.298Z,9.04
2023-03-26T02:52:30.561Z,9.05
2023-03-26T02:55:00.153Z,8.99
2023-03-26T02:57:29.767Z,8.96
2023-03-26T03:00:16.659Z,8.95
2023-03-26T03:02:52.885Z,8.90
2023-03-26T03:05:33.807Z,8.91
2023-03-26T03:08:13.622Z,8.91
2023-03-26T03:10:57.967Z,8.90
2023-03-26T03:13:39.523Z,8.89
2023-03-26T03:16:09.101Z,8.89
2023-03-26T03:18:37.853Z,8.90
2023-03-26T03:21:06.839Z,8.87
2023-03-26T03:23:35.022Z,8.93
2023-03-26T03:26:16.177Z,8.91
2023-03-26T03:28:50.945Z,8.91
2023-03-26T03:31:19.440Z,8.93
2023-03-26T03:33:47.428Z,8.90
2023-03-26T03:36:20.763Z,8.94
2023-03-26T03:39:02.230Z,8.92
2023-03-26T03:41:30.846Z,8.91
2023-03-26T03:44:02.066Z,8.91
2023-03-26T03:46:32.496Z,8.91
2023-03-26T03:49:00.797Z,8.91
2023-03-26T03:51:35.239Z,8.89
2023-03-26T03:54:15.252Z,8.91
2023-03-26T03:56:47.288Z,8.88
2023-03-26T03:59:28.898Z,8.87
2023-03-26T04:01:57.077Z,8.85
2023-03-26T04:04:34.415Z,8.84
2023-03-26T04:07:06.068Z,8.87
2023-03-26T04:09:51.121Z,8.85
2023-03-26T04:12:21.541Z,8.82
2023-03-26T04:14:59.501Z,8.79
2023-03-26T04:17:30.386Z,8.77
2023-03-26T04:20:05.788Z,8.76
2023-03-26T04:22:35.127Z,8.74
2023-03-26T04:25:06.089Z,8.67
2023-03-26T04:27:44.793Z,8.61
2023-03-26T04:30:38.304Z,8.53
2023-03-26T04:33:24.984Z,8.46
2023-03-26T04:35:54.548Z,8.54
2023-03-26T04:38:22.928Z,8.43
2023-03-26T04:40:53.857Z,8.33
2023-03-26T04:43:42.403Z,8.18
2023-03-26T04:46:33.522Z,8.12
2023-03-26T04:49:09.611Z,8.03
2023-03-26T04:51:41.803Z,8.03
2023-03-26T04:54:29.748Z,8.02
2023-03-26T04:57:06.608Z,8.02
2023-03-26T04:59:43.092Z,8.02
2023-03-26T05:02:15.651Z,7.96
2023-03-26T05:04:50.906Z,7.95
2023-03-26T05:07:23.918Z,7.94
2023-03-26T05:09:57.433Z,7.93
2023-03-26T05:13:00.908Z,7.92
2023-03-26T05:15:34.381Z,7.93
2023-03-26T05:18:12.699Z,7.90
2023-03-26T05:20:44.515Z,7.89
2023-03-26T05:23:13.012Z,7.87
2023-03-26T05:25:43.846Z,7.84
2023-03-26T05:28:19.254Z,7.77
2023-03-26T05:31:08.194Z,7.81
2023-03-26T05:33:41.067Z,7.75
2023-03-26T05:36:15.360Z,7.74
2023-03-26T05:38:52.365Z,7.73
2023-03-26T05:41:39.006Z,7.71
2023-03-26T05:44:07.335Z,7.52
2023-03-26T05:46:35.569Z,7.59
2023-03-26T05:49:05.113Z,7.60
2023-03-26T05:51:35.867Z,7.58
2023-03-26T05:54:29.869Z,7.55
2023-03-26T05:57:16.431Z,7.50
2023-03-26T06:00:04.150Z,7.50
2023-03-26T06:02:48.117Z,7.52
2023-03-26T06:05:38.671Z,7.50
2023-03-26T06:08:26.896Z,7.48
2023-03-26T06:11:00.312Z,7.38
2023-03-26T06:13:29.633Z,7.41
2023-03-26T06:15:58.918Z,7.43
2023-03-26T06:18:35.550Z,7.40
2023-03-26T06:21:23.757Z,7.40
2023-03-26T06:23:56.825Z,7.36
2023-03-26T06:26:43.977Z,7.35
2023-03-26T06:29:37.815Z,7.37
2023-03-26T06:32:24.168Z,7.34
2023-03-26T06:34:55.686Z,7.36
2023-03-26T06:37:25.145Z,7.36
2023-03-26T06:39:58.580Z,7.32
2023-03-26T06:43:07.957Z,7.30
2023-03-26T06:45:52.332Z,7.29
2023-03-26T06:48:38.945Z,7.28
2023-03-26T06:51:13.100Z,7.28
2023-03-26T06:54:01.144Z,7.30
2023-03-26T06:57:04.348Z,7.25
2023-03-26T06:59:32.452Z,7.29
2023-03-26T07:02:19.264Z,7.23
2023-03-26T07:05:06.849Z,7.29
2023-03-26T07:07:53.403Z,7.24
2023-03-26T07:10:41.658Z,7.26
2023-03-26T07:13:28.410Z,7.24
2023-03-26T07:16:15.403Z,7.27
2023-03-26T07:19:12.797Z,7.28
2023-03-26T07:21:43.105Z,7.28
2023-03-26T07:24:28.999Z,7.30
2023-03-26T07:27:17.056Z,7.31
2023-03-26T07:29:49.872Z,7.34
2023-03-26T07:32:47.231Z,7.34
2023-03-26T07:35:33.793Z,7.31
2023-03-26T07:38:28.222Z,7.30
2023-03-26T07:41:18.263Z,7.29
2023-03-26T07:44:22.630Z,7.30
2023-03-26T07:47:26.061Z,7.35
2023-03-26T07:50:18.162Z,7.35
2023-03-26T07:53:07.746Z,7.35
2023-03-26T07:55:59.096Z,7.36
2023-03-26T07:58:51.003Z,7.38
2023-03-26T08:01:54.388Z,7.35
2023-03-26T08:04:49.106Z,7.35
2023-03-26T08:07:55.369Z,7.32
2023-03-26T08:10:31.249Z,7.26
2023-03-26T08:13:18.632Z,7.31
2023-03-26T08:15:54.330Z,7.31
2023-03-26T08:18:35.952Z,7.33
2023-03-26T08:21:09.365Z,7.35
2023-03-26T08:23:50.851Z,7.39
2023-03-26T08:26:32.063Z,7.32
2023-03-26T08:29:09.828Z,7.35
2023-03-26T08:31:41.463Z,7.34
2023-03-26T08:34:13.805Z,7.38
2023-03-26T08:36:42.294Z,7.44
2023-03-26T08:39:10.350Z,7.41
2023-03-26T08:42:03.931Z,7.33
2023-03-26T08:45:38.124Z,7.43
2023-03-26T08:48:53.720Z,7.45
2023-03-26T08:51:52.454Z,7.41
2023-03-26T08:54:45.014Z,7.48
2023-03-26T08:58:10.418Z,7.38
2023-03-26T09:00:59.817Z,7.48
2023-03-26T09:03:51.030Z,7.44
2023-03-26T09:06:49.243Z,7.48
2023-03-26T09:09:50.742Z,7.50
2023-03-26T09:12:36.040Z,7.46
2023-03-26T09:15:58.671Z,7.46
2023-03-26T09:19:11.883Z,7.49
2023-03-26T09:22:21.889Z,7.50
2023-03-26T09:25:12.770Z,7.52
2023-03-26T09:27:52.721Z,7.51
2023-03-26T09:30:46.981Z,7.53
2023-03-26T09:33:29.208Z,7.50
2023-03-26T09:36:19.435Z,7.48
2023-03-26T09:38:54.591Z,7.57
2023-03-26T09:41:37.509Z,7.57
2023-03-26T09:44:50.707Z,7.63
2023-03-26T09:47:48.076Z,7.69
2023-03-26T09:50:38.189Z,7.75
2023-03-26T09:53:43.480Z,7.83
2023-03-26T09:56:19.858Z,7.91
2023-03-26T09:59:06.896Z,7.98
2023-03-26T10:01:43.562Z,8.04
2023-03-26T10:04:43.200Z,8.11
2023-03-26T10:07:31.496Z,8.23
2023-03-26T10:10:05.099Z,8.29
2023-03-26T10:12:38.350Z,8.35
2023-03-26T10:15:33.245Z,8.46
2023-03-26T10:18:27.826Z,8.40
2023-03-26T10:21:03.646Z,8.56
2023-03-26T10:23:43.318Z,8.67
2023-03-26T10:26:24.680Z,8.74
2023-03-26T10:29:13.721Z,8.85
2023-03-26T10:31:49.370Z,8.87
2023-03-26T10:34:49.595Z,9.00
2023-03-26T10:37:27.025Z,8.96
2023-03-26T10:40:17.686Z,9.12
2023-03-26T10:43:14.641Z,9.13
2023-03-26T10:45:57.177Z,9.20
2023-03-26T10:48:54.795Z,9.20
2023-03-26T10:51:48.621Z,9.26
2023-03-26T10:54:26.168Z,9.31
2023-03-26T10:56:56.790Z,9.28
2023-03-26T10:59:27.605Z,9.35
2023-03-26T11:02:06.359Z,9.29
2023-03-26T11:04:50.543Z,9.37
2023-03-26T11:07:26.252Z,9.38
2023-03-26T11:10:02.539Z,9.48
2023-03-26T11:12:38.553Z,9.50
2023-03-26T11:15:21.866Z,9.58
2023-03-26T11:17:59.177Z,9.59
2023-03-26T11:20:37.434Z,9.69
2023-03-26T11:23:27.660Z,9.65
2023-03-26T11:26:07.714Z,9.66
2023-03-26T11:29:31.417Z,9.82
2023-03-26T11:32:01.485Z,9.68
2023-03-26T11:34:35.288Z,9.64
2023-03-26T11:37:09.494Z,9.77
2023-03-26T11:39:46.847Z,9.89
2023-03-26T11:42:18.714Z,9.86
2023-03-26T11:44:54.182Z,10.00
2023-03-26T11:47:29.812Z,10.32
2023-03-26T11:50:00.107Z,10.51
2023-03-26T11:52:29.829Z,10.65
2023-03-26T11:54:59.368Z,10.56
2023-03-26T11:57:33.277Z,10.46
2023-03-26T12:00:15.833Z,10.34
2023-03-26T12:02:44.830Z,10.29
2023-03-26T12:05:16.583Z,10.26
2023-03-26T12:07:51.213Z,10.17
2023-03-26T12:10:27.786Z,10.12
2023-03-26T12:12:59.590Z,10.08
2023-03-26T12:15:28.518Z,9.98
2023-03-26T12:17:58.532Z,9.84
2023-03-26T12:20:36.684Z,9.90
2023-03-26T12:23:08.300Z,9.72
2023-03-26T12:25:39.186Z,9.70
2023-03-26T12:28:17.541Z,9.55
2023-03-26T12:30:55.134Z,9.60
2023-03-26T12:33:26.998Z,9.58
2023-03-26T12:35:57.905Z,9.57
2023-03-26T12:38:33.153Z,9.59
2023-03-26T12:41:08.008Z,9.56
2023-03-26T12:44:54.824Z,9.62
2023-03-26T12:47:58.375Z,9.58
2023-03-26T12:49:22.216Z,9.58
2023-03-26T12:51:56.745Z,9.54
2023-03-26T12:54:40.546Z,9.49
2023-03-26T12:57:22.246Z,9.47
2023-03-26T13:00:04.138Z,9.33
2023-03-26T13:03:07.922Z,9.48
2023-03-26T13:05:48.899Z,9.49
2023-03-26T13:08:32.680Z,9.37
2023-03-26T13:11:12.134Z,9.40
2023-03-26T13:14:22.035Z,9.47
2023-03-26T13:16:56.512Z,9.34
2023-03-26T13:19:32.629Z,9.19
2023-03-26T13:22:14.856Z,9.19
2023-03-26T13:24:52.912Z,8.99
2023-03-26T13:27:37.160Z,8.80
2023-03-26T13:30:16.025Z,8.83
2023-03-26T13:32:57.439Z,8.86
2023-03-26T13:35:31.646Z,8.84
2023-03-26T13:38:06.275Z,8.70
2023-03-26T13:40:46.047Z,8.74
2023-03-26T13:43:35.654Z,8.76
2023-03-26T13:46:12.102Z,8.76
2023-03-26T13:48:47.041Z,8.70
2023-03-26T13:51:22.178Z,8.76
2023-03-26T13:53:56.870Z,8.77
2023-03-26T13:56:31.904Z,8.80
2023-03-26T13:59:04.509Z,8.75
2023-03-26T14:01:36.319Z,8.75
2023-03-26T14:04:16.128Z,8.72
2023-03-26T14:06:57.353Z,8.65
2023-03-26T14:09:32.035Z,8.61
2023-03-26T14:12:21.124Z,8.62
2023-03-26T14:14:58.212Z,8.58
2023-03-26T14:17:32.092Z,8.56
2023-03-26T14:20:27.469Z,8.69
2023-03-26T14:23:12.572Z,8.64
2023-03-26T14:25:57.196Z,8.59
2023-03-26T14:28:44.438Z,8.63
2023-03-26T14:31:23.773Z,8.61
2023-03-26T14:34:03.736Z,8.62
2023-03-26T14:37:00.706Z,8.52
2023-03-26T14:39:44.668Z,8.64
2023-03-26T14:42:20.156Z,8.64
2023-03-26T14:45:04.392Z,8.62
2023-03-26T14:47:39.092Z,8.55
2023-03-26T14:50:35.929Z,8.50
2023-03-26T14:53:13.719Z,8.50
2023-03-26T14:56:01.299Z,8.52
2023-03-26T14:58:49.273Z,8.47
2023-03-26T15:01:26.707Z,8.49
2023-03-26T15:04:30.099Z,8.48
2023-03-26T15:07:32.531Z,8.50
2023-03-26T15:10:23.693Z,8.49
2023-03-26T15:13:36.964Z,8.48
2023-03-26T15:16:49.875Z,8.53
2023-03-26T15:19:44.328Z,8.47
2023-03-26T15:22:36.448Z,8.43
2023-03-26T15:25:34.179Z,8.43
2023-03-26T15:28:33.096Z,8.41
2023-03-26T15:31:10.932Z,8.46
2023-03-26T15:34:12.199Z,8.53
2023-03-26T15:36:58.854Z,8.46
2023-03-26T15:39:59.379Z,8.47
2023-03-26T15:42:38.280Z,8.44
2023-03-26T15:45:31.199Z,8.41
2023-03-26T15:48:20.946Z,8.45
2023-03-26T15:50:56.714Z,8.43
2023-03-26T15:53:36.426Z,8.42
2023-03-26T15:56:18.878Z,8.38
2023-03-26T15:58:55.231Z,8.35
2023-03-26T16:01:46.173Z,8.39
2023-03-26T16:04:24.963Z,8.36
2023-03-26T16:07:02.965Z,8.30
2023-03-26T16:10:22.467Z,8.21
2023-03-26T16:13:12.803Z,8.26
2023-03-26T16:15:42.768Z,8.23
2023-03-26T16:18:32.640Z,8.19
2023-03-26T16:21:30.636Z,8.26
2023-03-26T16:24:18.906Z,8.26
2023-03-26T16:27:00.536Z,8.26
2023-03-26T16:29:30.552Z,8.17
2023-03-26T16:32:14.954Z,8.20
2023-03-26T16:34:51.164Z,8.11
2023-03-26T16:37:42.812Z,8.07
2023-03-26T16:40:52.537Z,8.01
2023-03-26T16:43:56.637Z,7.97
2023-03-26T16:46:37.372Z,7.94
2023-03-26T16:49:17.517Z,7.88
2023-03-26T16:52:03.090Z,7.84
2023-03-26T16:54:43.067Z,7.83
2023-03-26T16:57:22.666Z,7.83
2023-03-26T17:00:07.615Z,7.77
2023-03-26T17:02:52.429Z,7.71
2023-03-26T17:05:26.195Z,7.71
2023-03-26T17:08:02.378Z,7.66
2023-03-26T17:10:36.811Z,7.60
2023-03-26T17:13:09.849Z,7.63
2023-03-26T17:15:48.080Z,7.60
2023-03-26T17:18:33.966Z,7.63
2023-03-26T17:21:05.687Z,7.61
2023-03-26T17:23:50.925Z,7.62
2023-03-26T17:26:28.108Z,7.48
2023-03-26T17:29:18.643Z,7.57
2023-03-26T17:31:54.382Z,7.53
2023-03-26T17:34:55.748Z,7.51
2023-03-26T17:37:28.999Z,7.47
2023-03-26T17:40:37.614Z,7.51
2023-03-26T17:43:11.509Z,7.54
2023-03-26T17:45:40.458Z,7.55
2023-03-26T17:48:16.780Z,7.57
2023-03-26T17:50:53.908Z,7.56
2023-03-26T17:53:25.830Z,7.54
2023-03-26T17:55:54.885Z,7.53
2023-03-26T17:58:28.912Z,7.54
2023-03-26T18:01:06.418Z,7.41
2023-03-26T18:03:37.466Z,7.40
2023-03-26T18:06:09.661Z,7.40
2023-03-26T18:08:58.977Z,7.36
2023-03-26T18:12:01.742Z,7.34
2023-03-26T18:14:59.115Z,7.34
2023-03-26T18:17:27.269Z,7.35
2023-03-26T18:20:06.054Z,7.39
2023-03-26T18:22:36.080Z,7.33
2023-03-26T18:25:05.757Z,7.34
2023-03-26T18:27:38.608Z,7.27
2023-03-26T18:30:17.566Z,7.29
2023-03-26T18:33:00.036Z,7.24
2023-03-26T18:35:39.959Z,7.25
2023-03-26T18:38:14.979Z,7.22
2023-03-26T18:40:45.029Z,7.24
2023-03-26T18:43:28.640Z,7.23
2023-03-26T18:46:02.700Z,7.21
2023-03-26T18:48:30.829Z,7.22
2023-03-26T18:51:05.032Z,7.19
2023-03-26T18:53:40.171Z,7.13
2023-03-26T18:56:21.216Z,7.20
2023-03-26T18:58:52.686Z,7.15
2023-03-26T19:01:26.046Z,7.16
2023-03-26T19:03:55.402Z,7.12
2023-03-26T19:06:23.957Z,7.08
2023-03-26T19:08:54.067Z,7.12
2023-03-26T19:11:22.237Z,7.06
2023-03-26T19:14:04.089Z,7.03
2023-03-26T19:16:36.790Z,7.04
2023-03-26T19:19:07.913Z,7.05
2023-03-26T19:21:37.412Z,7.06
2023-03-26T19:24:07.821Z,7.02
2023-03-26T19:26:36.606Z,7.04
2023-03-26T19:29:05.779Z,7.01
2023-03-26T19:31:36.115Z,6.96
2023-03-26T19:34:15.636Z,6.99
2023-03-26T19:36:58.110Z,7.00
2023-03-26T19:39:38.627Z,6.94
2023-03-26T19:42:07.978Z,6.94
2023-03-26T19:44:41.258Z,6.92
2023-03-26T19:47:16.856Z,6.89
2023-03-26T19:49:51.614Z,6.92
2023-03-26T19:52:23.404Z,6.92
2023-03-26T19:54:59.719Z,6.86
2023-03-26T19:57:30.395Z,6.92
2023-03-26T19:59:58.587Z,6.93
2023-03-26T20:02:27.449Z,6.94
2023-03-26T20:04:55.550Z,6.79
2023-03-26T20:07:35.306Z,6.84
2023-03-26T20:10:08.133Z,6.82
2023-03-26T20:12:36.144Z,6.83
2023-03-26T20:18:05.369Z,6.78
2023-03-26T20:20:34.362Z,6.77
2023-03-26T20:23:02.592Z,6.75
2023-03-26T20:25:35.121Z,6.72
2023-03-26T20:28:03.447Z,6.69
2023-03-26T20:30:37.462Z,6.69
2023-03-26T20:33:11.904Z,6.68
2023-03-26T20:35:42.769Z,6.73
2023-03-26T20:38:11.219Z,6.69
2023-03-26T20:40:40.983Z,6.66
2023-03-26T20:43:13.379Z,6.67
2023-03-26T20:45:41.974Z,6.66
2023-03-26T20:48:11.076Z,6.61
2023-03-26T20:50:50.282Z,6.57
2023-03-26T20:53:30.451Z,6.56
2023-03-26T20:56:00.162Z,6.61
2023-03-26T20:58:31.474Z,6.58
2023-03-26T21:01:01.447Z,6.59
2023-03-26T21:03:29.607Z,6.59
2023-03-26T21:06:01.833Z,6.54
2023-03-26T21:08:35.195Z,6.54
2023-03-26T21:11:06.768Z,6.48
2023-03-26T21:13:39.412Z,6.49
2023-03-26T21:16:08.679Z,6.49
2023-03-26T21:18:37.408Z,6.49
2023-03-26T21:21:21.195Z,6.47
2023-03-26T21:23:59.374Z,6.48
2023-03-26T21:26:33.751Z,6.50
2023-03-26T21:29:10.006Z,6.46
2023-03-26T21:31:41.691Z,6.46
2023-03-26T21:34:13.236Z,6.48
2023-03-26T21:36:41.989Z,6.49
2023-03-26T21:39:11.755Z,6.46
2023-03-26T21:41:46.078Z,6.48
2023-03-26T21:44:15.368Z,6.43
2023-03-26T21:46:44.497Z,6.40
2023-03-26T21:49:15.024Z,6.37
2023-03-26T21:51:44.567Z,6.36
2023-03-26T21:54:23.096Z,6.41
2023-03-26T21:57:04.013Z,6.41
2023-03-26T21:59:40.350Z,6.36
2023-03-26T22:02:14.348Z,6.30
2023-03-26T22:04:49.057Z,6.34
2023-03-26T22:07:20.816Z,6.36
2023-03-26T22:09:49.498Z,6.33
2023-03-26T22:12:18.944Z,6.28
2023-03-26T22:14:47.457Z,6.29
2023-03-26T22:17:15.792Z,6.29
2023-03-26T22:19:43.796Z,6.30
2023-03-26T22:22:12.543Z,6.28
2023-03-26T22:24:40.658Z,6.29
2023-03-26T22:27:08.840Z,6.31
2023-03-26T22:29:38.173Z,6.30
2023-03-26T22:32:06.873Z,6.26
2023-03-26T22:34:35.170Z,6.27
2023-03-26T22:37:03.172Z,6.29
2023-03-26T22:39:31.303Z,6.27
2023-03-26T22:42:01.440Z,6.25
2023-03-26T22:44:29.404Z,6.28
2023-03-26T22:46:58.841Z,6.27
2023-03-26T22:49:27.481Z,6.21
2023-03-26T22:51:55.454Z,6.22
2023-03-26T22:54:23.496Z,6.24
2023-03-26T22:56:52.359Z,6.21
2023-03-26T22:59:20.370Z,6.24
2023-03-26T23:01:48.474Z,6.22
2023-03-26T23:04:31.202Z,6.21
2023-03-26T23:07:00.581Z,6.21
2023-03-26T23:09:29.476Z,6.19
2023-03-26T23:11:57.892Z,6.17
2023-03-26T23:14:26.189Z,6.14
2023-03-26T23:16:54.221Z,6.14
2023-03-26T23:19:23.569Z,6.13
2023-03-26T23:21:51.603Z,6.07
2023-03-26T23:24:19.831Z,6.07
2023-03-26T23:26:51.088Z,6.05
2023-03-26T23:29:19.462Z,6.08
2023-03-26T23:31:47.684Z,6.02
2023-03-26T23:34:17.071Z,6.04
2023-03-26T23:36:47.130Z,6.01
2023-03-26T23:39:15.947Z,5.96
2023-03-26T23:41:43.899Z,5.96
2023-03-26T23:44:14.529Z,5.97
2023-03-26T23:46:42.819Z,5.94
2023-03-26T23:49:12.107Z,5.98
2023-03-26T23:51:40.148Z,6.00
2023-03-26T23:54:09.760Z,5.95
2023-03-26T23:56:38.101Z,5.97
2023-03-26T23:59:06.148Z,5.98
